KD9SK-13 Weather Reports


time (UTC)temp
F
wind
direction
speed
knots
gust
knots
rain 1hr
in
rain 24hr
in
rain mn
in
humidity
%
barometer
mb
20260506080502 64 320 1.7 8.7 0.53 0.67 0.67 93 1009.7
20260506073503 68 10 2.6 5.2 0.17 0.17 0.17 94 1006.9
20260506073002 69 151 0.9 2.6 0.17 0.17 0.17 94 1006.8
20260506072502 69 276 0.9 2.6 0.17 0.17 0.17 94 1007.1
20260506072002 69 247 0.0 2.6 0.17 0.17 0.17 94 1007.3
20260506071001 70 241 0.0 1.7 0.16 0.16 0.16 94 1007.5
20260506062501 73 262 0.9 1.7 0.00 0.00 0.00 95 1006.8
20260506062002 73 255 0.0 0.9 0.00 0.00 0.00 94 1006.6
20260506061501 73 119 0.0 0.9 0.00 0.00 0.00 94 1006.6
20260506060502 73 119 0.0 0.9 0.00 0.00 0.00 94 1006.5
20260506051001 73 130 0.0 0.9 0.00 0.00 0.00 94 1007.1
20260506050501 73 147 0.0 0.9 0.00 0.00 0.00 94 1006.9
20260506045001 73 246 0.0 0.0 0.00 0.00 0.00 95 1006.8
20260506044501 73 246 0.0 0.0 0.00 0.00 0.00 95 1006.8
20260506044002 73 246 0.0 0.0 0.00 0.00 0.00 95 1006.7
20260506043503 73 246 0.0 0.9 0.00 0.00 0.00 96 1006.7
20260506043002 72 84 0.0 0.9 0.00 0.00 0.00 96 1006.7
20260506042502 72 88 0.0 1.7 0.00 0.00 0.00 96 1006.4
20260506041502 72 82 0.0 0.9 0.00 0.00 0.00 95 1006.3
20260506041002 72 82 0.0 0.9 0.00 0.00 0.00 95 1006.4
20260506040502 71 82 0.0 0.9 0.00 0.00 0.00 95 1006.7
20260506040002 71 96 0.0 0.0 0.00 0.00 0.00 95 1006.9
20260506035002 71 96 0.0 0.0 0.00 0.00 0.00 95 1007.1
20260506034502 72 96 0.0 0.0 0.00 0.00 0.00 95 1007.2
20260506034002 71 96 0.0 0.0 0.00 0.00 0.00 95 1006.8
20260506033502 71 96 0.0 0.9 0.00 0.00 0.00 95 1006.5
20260506032502 71 96 0.0 0.0 0.00 0.00 0.00 95 1006.1
20260506032003 71 96 0.0 0.0 0.00 0.00 0.00 95 1006.1
20260506031502 72 96 0.0 0.9 0.00 0.00 0.00 95 1006.3
20260506031002 72 96 0.0 0.9 0.00 0.00 0.00 95 1006.4
20260506030502 72 96 0.0 0.0 0.00 0.00 0.00 95 1006.4
20260506030002 72 96 0.0 0.0 0.00 0.00 0.00 95 1006.5
20260506025502 72 96 0.0 0.9 0.00 0.00 0.00 95 1006.6
20260506025003 72 105 0.0 0.9 0.00 0.00 0.00 95 1006.5
20260506024002 72 105 0.0 0.0 0.00 0.00 0.00 94 1005.9
20260506023503 72 105 0.0 0.0 0.00 0.00 0.00 94 1006.1
20260506022501 72 105 0.0 0.0 0.00 0.00 0.00 94 1006.4
20260506022002 72 105 0.0 0.0 0.00 0.00 0.00 94 1006.5
20260506021502 72 105 0.0 0.0 0.00 0.00 0.00 94 1006.3
20260506020501 73 105 0.0 0.0 0.00 0.00 0.00 93 1005.7
20260506020002 73 105 0.0 0.0 0.00 0.00 0.00 93 1006.0
20260506015502 73 105 0.0 0.0 0.00 0.00 0.00 93 1006.2
20260506015002 73 105 0.0 0.0 0.00 0.00 0.00 93 1006.4
20260506014501 73 105 0.0 0.0 0.00 0.00 0.00 93 1006.4
20260506014002 73 105 0.0 0.0 0.00 0.00 0.00 93 1006.4
20260506013503 73 105 0.0 0.0 0.00 0.00 0.00 93 1006.2
20260506013002 73 105 0.0 0.0 0.00 0.00 0.00 93 1006.0
20260506012502 73 105 0.0 0.0 0.00 0.00 0.00 93 1006.1
20260506012002 74 105 0.0 0.0 0.00 0.00 0.00 92 1005.9
20260506011503 74 105 0.0 0.0 0.00 0.00 0.00 92 1005.7
20260506011002 74 105 0.0 0.0 0.00 0.00 0.00 92 1005.7
20260506010502 74 105 0.0 0.0 0.00 0.00 0.00 91 1005.6
20260506010002 74 105 0.0 0.0 0.00 0.00 0.00 91 1005.6
20260506005502 74 105 0.0 0.0 0.00 0.00 0.00 91 1005.5
20260506005004 74 105 0.0 0.0 0.00 0.00 0.00 91 1005.6
20260506004002 75 105 0.0 0.0 0.00 0.00 0.00 90 1005.5
20260506003503 75 105 0.0 0.0 0.00 0.00 0.00 90 1005.5
20260506003002 75 105 0.0 0.0 0.00 0.00 0.00 90 1005.4
20260506002502 75 105 0.0 0.0 0.00 0.00 0.00 90 1005.4
20260506002002 75 105 0.0 0.0 0.00 0.00 0.00 89 1005.3
20260506001502 76 105 0.0 0.9 0.00 0.00 0.00 89 1005.3
20260506001002 76 105 0.0 0.0 0.00 0.00 0.00 89 1005.3
20260506000502 76 105 0.0 0.0 0.00 0.00 0.00 88 1005.2
20260506000003 76 105 0.0 0.0 0.00 0.00 0.00 88 1005.1
20260505235002 76 105 0.0 0.0 0.00 0.00 0.00 88 1005.2
20260505234501 76 105 0.0 0.9 0.00 0.00 0.00 89 1005.2
20260505234002 76 105 0.9 1.7 0.00 0.00 0.00 88 1005.0
20260505233502 76 105 0.0 0.0 0.00 0.00 0.00 88 1005.2
20260505233002 76 105 0.0 0.9 0.00 0.00 0.00 88 1005.1
20260505232503 76 105 0.0 0.9 0.00 0.00 0.00 88 1005.2
20260505232002 76 105 0.0 1.7 0.00 0.00 0.00 87 1005.4
20260505231502 76 95 0.0 0.9 0.00 0.00 0.00 87 1005.5
20260505230502 76 271 0.0 0.9 0.00 0.00 0.00 88 1005.2
20260505230002 76 117 0.0 0.9 0.00 0.00 0.00 88 1005.0
20260505225002 76 134 0.9 2.6 0.00 0.00 0.00 88 1004.7
20260505224501 76 127 0.0 0.0 0.00 0.00 0.00 88 1004.8
20260505224002 76 127 0.0 0.0 0.00 0.00 0.00 88 1005.1
20260505223002 76 127 0.0 0.9 0.00 0.00 0.00 87 1005.4
20260505222502 76 127 0.0 0.9 0.00 0.00 0.00 87 1005.4
20260505222002 76 139 0.0 0.9 0.00 0.00 0.00 87 1005.5
20260505221503 76 139 0.0 0.0 0.00 0.00 0.00 87 1005.6
20260505221001 76 139 0.0 0.9 0.00 0.00 0.00 86 1005.6
20260505220502 76 141 0.0 0.0 0.00 0.00 0.00 87 1005.5
20260505220002 76 141 0.0 0.0 0.00 0.00 0.00 88 1005.6
20260505215501 76 141 0.0 0.0 0.00 0.00 0.00 87 1005.8
20260505215003 76 141 0.0 0.0 0.00 0.00 0.00 88 1005.5
20260505214501 75 141 0.0 0.9 0.00 0.00 0.00 89 1005.5
20260505214002 75 141 0.0 0.9 0.00 0.00 0.00 89 1005.3
20260505213502 75 141 0.0 1.7 0.00 0.00 0.00 88 1005.2
20260505213002 75 136 0.0 0.9 0.00 0.00 0.00 90 1005.1
20260505212002 74 132 0.0 1.7 0.00 0.00 0.00 91 1005.2
20260505211502 74 134 0.0 0.9 0.00 0.00 0.00 91 1005.6
20260505211003 74 134 0.9 2.6 0.00 0.00 0.00 90 1005.9
20260505210503 74 7 0.0 0.9 0.00 0.00 0.00 90 1006.3
20260505210002 74 56 0.0 0.0 0.00 0.00 0.00 91 1006.3
20260505205503 74 56 0.0 0.9 0.00 0.00 0.00 91 1006.1
20260505205002 73 109 0.0 0.0 0.00 0.00 0.00 92 1006.2
20260505204502 73 109 0.0 0.9 0.00 0.00 0.00 92 1006.0
20260505204003 73 109 0.9 0.9 0.00 0.00 0.00 92 1006.0
20260505203502 73 109 0.0 0.9 0.00 0.00 0.00 91 1006.2
20260505203002 73 114 0.0 0.0 0.00 0.00 0.00 91 1006.2
20260505202502 73 114 0.0 0.0 0.00 0.00 0.00 91 1006.2
20260505202002 73 114 0.0 0.0 0.00 0.00 0.00 90 1006.2
20260505201502 73 114 0.0 0.0 0.00 0.00 0.00 90 1006.4
20260505201002 73 114 0.0 0.9 0.00 0.00 0.00 89 1006.4
20260505200503 74 114 0.0 0.9 0.00 0.00 0.00 89 1006.4
20260505200002 74 203 0.0 1.7 0.00 0.00 0.00 89 1006.3
20260505195502 74 142 0.9 2.6 0.00 0.00 0.00 90 1006.2
20260505195002 74 257 0.9 2.6 0.00 0.00 0.00 90 1006.1
20260505194502 74 183 0.0 1.7 0.00 0.00 0.00 92 1005.8
20260505194002 73 123 0.9 1.7 0.00 0.00 0.00 93 1005.8
20260505193503 73 137 0.0 0.9 0.00 0.00 0.00 94 1005.9
20260505193002 72 137 0.0 0.9 0.00 0.00 0.00 95 1006.0
20260505192502 71 139 0.0 1.7 0.00 0.00 0.00 95 1006.1
20260505192002 71 129 0.9 1.7 0.00 0.00 0.00 95 1006.2
20260505191502 71 138 0.0 0.9 0.00 0.00 0.00 95 1006.5
20260505191002 70 136 0.0 0.9 0.00 0.00 0.00 95 1006.6
20260505190503 70 136 0.0 0.9 0.00 0.00 0.00 95 1006.7
20260505190002 70 134 0.0 0.9 0.00 0.00 0.00 95 1006.7
20260505185502 69 137 0.9 2.6 0.00 0.00 0.00 95 1006.7
20260505185002 69 204 0.0 1.7 0.00 0.00 0.00 95 1006.7
20260505184502 69 150 0.9 1.7 0.00 0.00 0.00 95 1006.7
20260505183502 69 139 0.0 0.9 0.00 0.00 0.00 95 1006.7
20260505183003 69 138 0.9 1.7 0.00 0.00 0.00 95 1006.8
20260505182502 69 230 0.0 0.9 0.00 0.00 0.00 95 1006.9
20260505182002 69 212 0.0 0.0 0.00 0.00 0.00 95 1006.9
20260505181502 69 212 0.0 0.0 0.00 0.00 0.00 95 1006.9
20260505181002 68 215 0.0 0.0 0.00 0.00 0.00 95 1006.9
20260505180502 68 200 0.0 0.9 0.00 0.00 0.00 95 1007.0
20260505180002 68 205 0.0 0.9 0.00 0.00 0.00 95 1007.1
20260505175501 68 266 0.0 1.7 0.00 0.00 0.00 95 1007.1
20260505175002 68 166 0.0 0.9 0.00 0.00 0.00 95 1007.2
20260505174502 68 166 0.0 0.0 0.00 0.00 0.00 95 1007.2
20260505174001 68 166 0.0 0.9 0.00 0.00 0.00 95 1007.4
20260505173503 68 260 0.0 1.7 0.00 0.00 0.00 95 1007.3
20260505173002 68 149 0.0 0.9 0.00 0.00 0.00 95 1007.2
20260505172503 68 131 0.0 0.9 0.00 0.00 0.00 95 1007.2
20260505172002 68 295 0.0 0.9 0.00 0.00 0.00 95 1007.2
20260505171502 68 295 0.0 0.9 0.00 0.00 0.00 95 1007.4
20260505171003 68 295 0.0 0.9 0.00 0.00 0.00 95 1007.5
20260505165502 67 133 0.0 0.9 0.00 0.00 0.00 95 1007.5
20260505165002 67 133 0.0 0.0 0.00 0.00 0.00 95 1007.6
20260505164503 67 133 0.0 0.9 0.00 0.00 0.00 95 1007.7
20260505164002 67 133 0.0 0.9 0.00 0.00 0.00 95 1007.7
20260505163502 67 136 0.0 0.9 0.00 0.00 0.00 95 1007.7
20260505163002 67 148 0.0 0.0 0.00 0.00 0.00 95 1007.6
20260505162003 67 82 0.0 2.6 0.00 0.00 0.00 95 1007.6
20260505161502 67 136 0.9 1.7 0.00 0.00 0.00 95 1007.5
20260505161002 67 143 0.0 0.0 0.00 0.00 0.00 95 1007.6
20260505160502 67 143 0.0 0.9 0.00 0.00 0.00 95 1007.6
20260505153002 67 145 0.0 0.0 0.00 0.00 0.00 94 1007.8
20260505151502 67 124 0.0 1.7 0.00 0.00 0.00 94 1007.9
20260505151002 66 132 0.0 0.9 0.00 0.00 0.00 94 1007.9
20260505140502 66 148 0.0 0.0 0.00 0.00 0.00 94 1007.7
20260505125002 66 150 0.0 0.9 0.00 0.00 0.00 90 1007.4
20260505124502 66 150 0.0 1.7 0.00 0.00 0.00 90 1007.4
20260505124002 66 297 0.0 0.0 0.00 0.00 0.00 90 1007.4
20260505123503 66 136 0.0 0.9 0.00 0.00 0.00 90 1007.3
20260505123003 66 136 0.0 0.9 0.00 0.00 0.00 89 1007.3
20260505122502 66 135 0.0 2.6 0.00 0.00 0.00 89 1007.3
20260505122003 66 135 0.0 0.0 0.00 0.00 0.00 89 1007.2
20260505121502 66 135 0.0 0.0 0.00 0.00 0.00 89 1007.2
20260505121002 66 135 0.0 0.0 0.00 0.00 0.00 88 1007.0
20260505120502 66 135 0.0 1.7 0.00 0.00 0.00 88 1007.0
20260505120002 66 137 0.9 1.7 0.00 0.00 0.00 88 1006.9
20260505115503 66 128 0.0 0.9 0.00 0.00 0.00 88 1006.7
20260505115002 66 128 0.0 0.9 0.00 0.00 0.00 87 1006.7
20260505114503 66 128 0.0 0.9 0.00 0.00 0.00 87 1006.6
20260505114003 66 128 0.0 0.9 0.00 0.00 0.00 87 1006.5
20260505113002 66 153 0.0 1.7 0.00 0.00 0.00 86 1006.4
20260505112503 66 115 0.0 2.6 0.00 0.00 0.00 86 1006.3
20260505111503 66 162 0.0 1.7 0.00 0.00 0.00 86 1006.4
20260505111002 66 141 0.9 1.7 0.00 0.00 0.00 85 1006.2
20260505110503 66 142 0.0 2.6 0.00 0.00 0.00 85 1006.3
20260505102003 66 183 0.0 0.9 0.00 0.00 0.00 84 1006.2
20260505101502 66 152 0.9 2.6 0.00 0.00 0.00 83 1006.3
20260505101003 66 129 0.0 0.0 0.00 0.00 0.00 83 1006.3
20260505100504 66 137 0.0 1.7 0.00 0.00 0.00 83 1006.3
20260505100003 66 130 0.0 0.9 0.00 0.00 0.00 83 1006.3
20260505095502 67 148 0.9 1.7 0.00 0.00 0.00 82 1006.2
20260505095002 67 194 0.0 1.7 0.00 0.00 0.00 82 1006.3
20260505094503 67 122 0.9 2.6 0.00 0.00 0.00 82 1006.3
20260505094003 67 134 0.9 2.6 0.00 0.00 0.00 82 1006.3
20260505093003 67 133 0.9 1.7 0.00 0.00 0.00 81 1006.2
20260505092502 67 164 0.9 1.7 0.00 0.00 0.00 81 1006.2
20260505092003 67 169 0.9 2.6 0.00 0.00 0.00 81 1006.3
20260505091502 67 155 0.9 1.7 0.00 0.00 0.00 80 1006.3
20260505091002 67 210 0.9 2.6 0.00 0.00 0.00 80 1006.5
20260505090002 67 135 0.9 2.6 0.00 0.00 0.00 80 1006.6
20260505085503 67 135 0.9 2.6 0.00 0.00 0.00 79 1006.5
20260505085003 67 153 0.9 2.6 0.00 0.00 0.00 79 1006.5
20260505084503 67 164 0.9 2.6 0.00 0.00 0.00 79 1006.6
20260505084003 67 151 0.9 2.6 0.00 0.00 0.00 79 1006.7
20260505083503 67 195 0.9 2.6 0.00 0.00 0.00 79 1006.9
20260505083003 67 293 0.9 1.7 0.00 0.00 0.00 79 1006.9
20260505082503 67 252 0.9 2.6 0.00 0.00 0.00 78 1006.9
20260505082003 67 144 0.9 1.7 0.00 0.00 0.00 78 1007.0
20260505081502 67 141 0.9 2.6 0.00 0.00 0.00 78 1007.1